Red Bay, Alabama
Current Conditions -  °F | °C
As of 4:22 AM on Friday 31 Oct 2014 (Local Time) from K1M4 Reporting Station
Moderate Rain Moderate Rain  
Wind Chill: 46°   Ceiling: Unl
Heat Index: 46°   Visibility: 5mi
Dew Point: 43°   Wind: 0mph
Humidity: 87%   Direction: NA
Pressure: 30.01"   Gusts: NA
Location:  34.44°N, 88.14°W
Report Text: K1M4 310922Z AUTO 00000KT 5SM RA BR FEW001 SCT021 SCT038 08/06 A3001 RMK AO2 RAB16 P0001 PRESFR
Loading
Personal Weather Stations






























Interactive Weather Map
Tropical Storm Tracking
New forecast layout! Learn more

10-Day Weather Forecast

Advertisements
Track Severe Weather on mobile